Time;durP1;ratioP1;P1;durP2;ratioP2;P2;SDS_P1;SDS_P2;PMS_P1;PMS_P2;Temp;Humidity;BMP_temperature;BMP_pressure;BME280_temperature;BME280_humidity;BME280_pressure;Samples;Min_cycle;Max_cycle;Signal;HPM_P1;HPM_P2
2022/12/22 03:28:10;;;;;;;;;;;;;;;12.39;71.26;98333.91;5018435;28;21044;-46
2022/12/22 03:30:36;;;;;;;;;;;;;;;12.72;71.86;98348.59;5018781;28;19921;-48
2022/12/22 03:33:01;;;;;;;;;;;;;;;12.92;72.73;98339.81;5019130;28;19917;-46
2022/12/22 03:35:26;;;;;;;;;;;;;;;12.24;72.93;98327.75;5018083;28;19917;-45
2022/12/22 03:37:51;;;;;;;;;;;;;;;12.46;72.14;98337.84;5018721;28;19917;-45
2022/12/22 03:40:17;;;;;;;;;;;;;;;12.22;69.28;98333.91;5020309;28;19921;-45
2022/12/22 03:48:10;;;;;;;;;;;;;;;12.04;66.72;98345.97;5022190;28;19983;-45
2022/12/22 03:50:35;;;;;;;;;;;;;;;12.22;65.08;98362.31;5022887;28;19917;-45
2022/12/22 03:53:00;;;;;;;;;;;;;;;12.81;63.76;98373.97;5022778;28;19921;-46
2022/12/22 03:55:26;;;;;;;;;;;;;;;12.62;67.48;98342.25;5022819;28;19917;-45
2022/12/22 03:57:51;;;;;;;;;;;;;;;12.87;67.07;98352.16;5022696;28;19979;-45
2022/12/22 04:00:16;;;;;;;;;;;;;;;12.03;71.49;98319.31;5020794;28;20431;-45
2022/12/22 04:02:41;;;;;;;;;;;;;;;12.41;64.95;98339.84;5022400;28;19928;-46
2022/12/22 04:05:07;;;;;;;;;;;;;;;12.49;66.36;98340.28;5020298;28;19972;-45
2022/12/22 04:07:32;;;;;;;;;;;;;;;12.55;65.60;98342.56;5021926;28;19928;-45
2022/12/22 04:12:53;;;;;;;;;;;;;;;12.58;66.00;98327.81;5022098;28;19993;-45
2022/12/22 04:15:19;;;;;;;;;;;;;;;12.38;67.31;98321.06;5022812;28;19931;-45
2022/12/22 04:17:45;;;;;;;;;;;;;;;12.52;64.78;98329.81;5022168;28;20627;-48
2022/12/22 04:20:10;;;;;;;;;;;;;;;12.49;64.41;98334.28;5021431;28;19928;-46
2022/12/22 04:22:35;;;;;;;;;;;;;;;12.65;65.09;98329.16;5020767;28;19944;-47
2022/12/22 04:25:01;;;;;;;;;;;;;;;12.60;67.71;98318.25;5021781;28;19917;-47
2022/12/22 04:27:26;;;;;;;;;;;;;;;12.27;69.65;98296.63;5022302;28;19972;-48
2022/12/22 04:29:51;;;;;;;;;;;;;;;12.60;67.13;98303.56;5019823;28;19967;-47
2022/12/22 04:32:16;;;;;;;;;;;;;;;12.71;64.97;98305.59;5022040;28;19924;-48
2022/12/22 04:34:42;;;;;;;;;;;;;;;12.51;65.14;98299.72;5021484;28;20015;-46
2022/12/22 04:37:07;;;;;;;;;;;;;;;12.53;62.90;98315.97;5021204;28;19916;-47
2022/12/22 04:39:32;;;;;;;;;;;;;;;12.74;61.96;98324.34;5021246;28;19971;-46
2022/12/22 04:41:57;;;;;;;;;;;;;;;12.54;64.07;98314.22;5020000;28;19921;-47
2022/12/22 04:44:22;;;;;;;;;;;;;;;12.64;64.89;98314.59;5021766;28;19917;-47
2022/12/22 04:46:48;;;;;;;;;;;;;;;12.63;67.19;98297.41;5017942;28;19921;-46
2022/12/22 04:49:13;;;;;;;;;;;;;;;12.38;65.19;98293.50;5020302;28;19921;-46
2022/12/22 04:51:38;;;;;;;;;;;;;;;12.45;65.91;98288.84;5020615;28;19928;-46
2022/12/22 04:54:03;;;;;;;;;;;;;;;13.02;63.80;98302.22;5021226;28;19948;-47
2022/12/22 04:56:29;;;;;;;;;;;;;;;13.13;67.08;98291.31;5019628;28;19921;-46
2022/12/22 04:58:54;;;;;;;;;;;;;;;13.14;70.17;98264.56;5018716;28;19920;-47
2022/12/22 05:01:19;;;;;;;;;;;;;;;13.26;72.45;98248.38;5021432;28;19913;-47
2022/12/22 05:03:44;;;;;;;;;;;;;;;12.93;75.28;98218.28;5020627;28;19917;-47
2022/12/22 05:06:10;;;;;;;;;;;;;;;12.87;71.52;98234.13;5019888;28;19929;-47
2022/12/22 05:08:35;;;;;;;;;;;;;;;13.14;70.15;98246.47;5019167;28;19936;-46
2022/12/22 05:11:01;;;;;;;;;;;;;;;13.00;71.40;98233.44;5020078;28;19963;-47
2022/12/22 05:13:27;;;;;;;;;;;;;;;12.92;72.60;98226.13;5020833;28;19975;-48
2022/12/22 05:15:52;;;;;;;;;;;;;;;13.23;72.11;98227.88;5020476;28;19936;-47
2022/12/22 05:18:17;;;;;;;;;;;;;;;13.31;74.19;98222.28;5019208;28;20024;-47
2022/12/22 05:20:42;;;;;;;;;;;;;;;13.02;75.93;98205.78;5020474;28;19917;-48
2022/12/22 05:23:08;;;;;;;;;;;;;;;13.35;75.36;98219.47;5020452;28;19936;-48
2022/12/22 05:25:33;;;;;;;;;;;;;;;13.30;78.70;98207.72;5020534;28;19921;-47
2022/12/22 05:27:58;;;;;;;;;;;;;;;13.27;78.29;98200.91;5020226;28;19925;-48
2022/12/22 05:30:23;;;;;;;;;;;;;;;13.21;77.21;98201.25;5018987;28;20444;-48
2022/12/22 05:32:49;;;;;;;;;;;;;;;12.85;79.09;98184.28;5018326;28;19924;-50
2022/12/22 05:35:14;;;;;;;;;;;;;;;13.06;76.22;98199.53;5020719;28;20408;-47
2022/12/22 05:37:39;;;;;;;;;;;;;;;12.21;74.05;98182.53;5019313;28;19928;-49
2022/12/22 05:40:05;;;;;;;;;;;;;;;12.35;67.80;98211.03;5018834;28;19921;-47
2022/12/22 05:42:36;;;;;;;;;;;;;;;13.09;64.91;98231.22;5020177;28;19928;-47
2022/12/22 05:45:01;;;;;;;;;;;;;;;12.75;66.68;98224.44;5019620;28;20384;-48
2022/12/22 05:47:26;;;;;;;;;;;;;;;12.46;67.40;98213.91;5020418;28;19925;-47
2022/12/22 05:49:52;;;;;;;;;;;;;;;12.68;61.88;98223.09;5019294;28;19931;-47
2022/12/22 05:52:17;;;;;;;;;;;;;;;12.93;64.22;98223.47;5020444;28;19917;-49
2022/12/22 05:54:42;;;;;;;;;;;;;;;13.55;62.12;98240.81;5019409;28;20040;-48
2022/12/22 05:57:07;;;;;;;;;;;;;;;13.67;70.02;98219.38;5016129;28;20226;-50
2022/12/22 05:59:32;;;;;;;;;;;;;;;13.36;73.75;98192.69;5018476;28;20418;-47
2022/12/22 06:01:58;;;;;;;;;;;;;;;13.44;73.99;98187.06;5020374;28;20434;-48
2022/12/22 06:04:23;;;;;;;;;;;;;;;13.73;80.19;98171.63;5016543;28;20452;-48
2022/12/22 06:06:48;;;;;;;;;;;;;;;13.24;86.25;98139.03;5020511;28;20488;-47
2022/12/22 06:09:13;;;;;;;;;;;;;;;13.99;81.87;98165.75;5019039;28;20318;-47
2022/12/22 06:11:38;;;;;;;;;;;;;;;13.95;91.75;98129.78;5019975;28;20515;-47
2022/12/22 06:14:04;;;;;;;;;;;;;;;14.12;94.16;98116.66;5019969;28;20043;-47
2022/12/22 06:16:29;;;;;;;;;;;;;;;13.99;98.53;98097.63;5020195;28;19927;-47
2022/12/22 06:18:54;;;;;;;;;;;;;;;13.49;100.00;98075.59;5019165;28;19921;-47
2022/12/22 06:21:19;;;;;;;;;;;;;;;13.91;100.00;98086.88;5020195;28;19921;-47
2022/12/22 06:23:45;;;;;;;;;;;;;;;13.94;100.00;98066.00;5019544;28;20008;-47
2022/12/22 06:26:10;;;;;;;;;;;;;;;14.02;100.00;98058.59;5019334;28;19965;-46
2022/12/22 06:28:35;;;;;;;;;;;;;;;13.44;100.00;98038.81;5018861;28;19924;-46
2022/12/22 06:31:00;;;;;;;;;;;;;;;13.48;100.00;98063.56;5019535;28;20003;-47
2022/12/22 06:33:25;;;;;;;;;;;;;;;13.40;100.00;98069.19;5020083;28;19949;-47
2022/12/22 06:35:51;;;;;;;;;;;;;;;13.69;100.00;98088.19;5020163;28;19921;-45
2022/12/22 06:38:16;;;;;;;;;;;;;;;13.46;100.00;98075.78;5018638;28;19921;-46
2022/12/22 06:40:41;;;;;;;;;;;;;;;14.07;100.00;98092.81;5020370;28;19999;-46
2022/12/22 06:43:07;;;;;;;;;;;;;;;13.72;100.00;98076.81;5019514;28;19971;-47
2022/12/22 06:45:33;;;;;;;;;;;;;;;14.49;100.00;98066.94;5018450;28;19953;-47
2022/12/22 06:47:58;;;;;;;;;;;;;;;14.49;100.00;98036.69;5019519;28;20023;-46
2022/12/22 06:50:23;;;;;;;;;;;;;;;13.72;100.00;98015.53;5018660;28;20027;-47
2022/12/22 06:52:49;;;;;;;;;;;;;;;14.10;100.00;98035.66;5019061;28;19991;-47
2022/12/22 06:55:14;;;;;;;;;;;;;;;14.66;100.00;98024.44;5019691;28;20472;-47
2022/12/22 06:57:39;;;;;;;;;;;;;;;14.54;100.00;97993.22;5019339;28;20511;-47
2022/12/22 07:00:06;;;;;;;;;;;;;;;14.71;100.00;97983.50;5019288;28;20002;-47
2022/12/22 07:02:31;;;;;;;;;;;;;;;14.47;100.00;97955.66;5017674;28;20424;-47
2022/12/22 07:04:56;;;;;;;;;;;;;;;14.37;100.00;97946.81;5016492;28;19952;-47
2022/12/22 07:07:21;;;;;;;;;;;;;;;14.29;100.00;97944.69;5019819;28;20034;-47
2022/12/22 07:09:47;;;;;;;;;;;;;;;14.05;100.00;97959.19;5018263;28;19920;-47
2022/12/22 07:12:12;;;;;;;;;;;;;;;14.26;100.00;97967.38;5018887;28;19925;-47
2022/12/22 07:14:37;;;;;;;;;;;;;;;14.52;100.00;97966.53;5021522;28;19952;-47
2022/12/22 07:17:02;;;;;;;;;;;;;;;14.13;100.00;97955.19;5024422;28;19979;-47
2022/12/22 07:19:28;;;;;;;;;;;;;;;14.15;100.00;97971.47;5024390;28;19921;-48
2022/12/22 07:21:53;;;;;;;;;;;;;;;14.49;100.00;97963.31;5024452;28;19995;-48
2022/12/22 07:24:22;;;;;;;;;;;;;;;14.75;100.00;97961.66;5025260;28;19974;-47
2022/12/22 07:26:48;;;;;;;;;;;;;;;14.77;100.00;97952.84;5025201;28;19975;-46
2022/12/22 07:29:13;;;;;;;;;;;;;;;14.73;100.00;97935.81;5023448;28;20027;-46
2022/12/22 07:31:38;;;;;;;;;;;;;;;14.64;100.00;97924.31;5025419;28;19921;-47
2022/12/22 07:34:04;;;;;;;;;;;;;;;14.33;100.00;97924.63;5023970;28;19920;-48
2022/12/22 07:36:29;;;;;;;;;;;;;;;14.32;100.00;97930.72;5025063;28;19921;-48
2022/12/22 07:38:54;;;;;;;;;;;;;;;14.71;100.00;97936.84;5024379;28;19924;-46
2022/12/22 07:44:03;;;;;;;;;;;;;;;14.49;100.00;97927.88;5025190;28;20022;-48
2022/12/22 07:46:30;;;;;;;;;;;;;;;14.48;100.00;97933.97;5024618;28;20020;-47
2022/12/22 07:51:39;;;;;;;;;;;;;;;14.67;100.00;97930.25;5024266;28;19975;-46
2022/12/22 07:54:05;;;;;;;;;;;;;;;14.70;100.00;97930.84;5024327;28;20375;-47
2022/12/22 07:56:30;;;;;;;;;;;;;;;14.71;100.00;97934.25;5022696;28;20023;-47
2022/12/22 07:58:56;;;;;;;;;;;;;;;14.15;100.00;97930.06;5024591;28;19921;-47
2022/12/22 08:01:21;;;;;;;;;;;;;;;14.16;100.00;97947.25;5025070;28;19959;-47
2022/12/22 08:03:46;;;;;;;;;;;;;;;13.98;100.00;97953.56;5023293;28;19967;-47
2022/12/22 08:06:11;;;;;;;;;;;;;;;14.36;100.00;97973.63;5021066;28;20326;-47
2022/12/22 08:08:37;;;;;;;;;;;;;;;14.52;100.00;97971.72;5023245;28;20338;-46
2022/12/22 08:11:02;;;;;;;;;;;;;;;14.36;100.00;97969.28;5024334;28;19927;-49
2022/12/22 08:13:28;;;;;;;;;;;;;;;14.23;100.00;97982.19;5024440;28;19964;-47
2022/12/22 08:15:53;;;;;;;;;;;;;;;14.34;100.00;97993.63;5024590;28;19924;-47
2022/12/22 08:18:18;;;;;;;;;;;;;;;13.73;100.00;97999.09;5023499;28;19929;-47
2022/12/22 08:20:49;;;;;;;;;;;;;;;13.42;100.00;98019.97;5023791;28;19920;-46
2022/12/22 08:23:15;;;;;;;;;;;;;;;13.32;100.00;98064.47;5024664;28;19921;-47
2022/12/22 08:25:40;;;;;;;;;;;;;;;12.20;100.00;98093.94;5023460;28;19924;-46
2022/12/22 08:28:05;;;;;;;;;;;;;;;11.97;93.61;98166.53;5021277;28;19929;-46
2022/12/22 08:30:31;;;;;;;;;;;;;;;11.85;75.78;98217.00;5019193;28;20008;-46
2022/12/22 08:32:56;;;;;;;;;;;;;;;11.76;63.11;98275.03;5020509;28;19953;-47
2022/12/22 08:35:21;;;;;;;;;;;;;;;11.87;57.75;98319.22;5021566;28;20147;-46
2022/12/22 08:37:46;;;;;;;;;;;;;;;11.85;55.34;98351.97;5018622;28;19951;-47
2022/12/22 08:40:13;;;;;;;;;;;;;;;12.05;54.25;98394.94;5002925;28;19924;-46
2022/12/22 08:42:38;;;;;;;;;;;;;;;11.96;53.13;98426.34;5020154;28;20007;-47
2022/12/22 08:45:04;;;;;;;;;;;;;;;12.05;52.03;98456.03;5020341;28;20362;-46
2022/12/22 08:47:29;;;;;;;;;;;;;;;11.79;52.76;98475.25;5021632;28;20000;-47
2022/12/22 08:49:55;;;;;;;;;;;;;;;11.65;52.56;98499.91;5019428;28;19936;-46
2022/12/22 08:52:20;;;;;;;;;;;;;;;11.72;52.90;98565.84;5021382;28;19917;-46
2022/12/22 08:54:45;;;;;;;;;;;;;;;11.85;52.52;98617.72;5020054;28;19921;-46
2022/12/22 08:57:11;;;;;;;;;;;;;;;11.43;55.54;98641.03;5021223;28;19928;-46
2022/12/22 08:59:36;;;;;;;;;;;;;;;11.52;57.40;98699.94;5018363;28;19921;-46
2022/12/22 09:02:04;;;;;;;;;;;;;;;11.38;59.71;98739.19;5021265;28;20158;-45
2022/12/22 09:04:30;;;;;;;;;;;;;;;11.76;59.14;98800.44;5019448;28;19925;-46
2022/12/22 09:06:55;;;;;;;;;;;;;;;11.68;61.27;98822.22;5020949;28;19925;-47
2022/12/22 09:09:21;;;;;;;;;;;;;;;11.39;63.41;98838.84;5018760;28;20484;-46
2022/12/22 09:11:46;;;;;;;;;;;;;;;11.27;65.80;98889.13;5020608;28;20382;-49
2022/12/22 09:14:11;;;;;;;;;;;;;;;11.44;67.84;98940.06;5019119;28;19943;-47
2022/12/22 09:16:37;;;;;;;;;;;;;;;11.14;70.81;98957.47;5020150;28;19917;-45
2022/12/22 09:19:02;;;;;;;;;;;;;;;10.89;75.52;98991.78;5016825;28;19917;-46
2022/12/22 09:21:28;;;;;;;;;;;;;;;10.97;78.27;99047.38;5020496;28;20523;-45
2022/12/22 09:23:53;;;;;;;;;;;;;;;11.21;81.37;99123.91;5018313;28;19964;-47
2022/12/22 09:26:20;;;;;;;;;;;;;;;10.76;84.72;99149.38;5020580;28;19925;-46
2022/12/22 09:28:45;;;;;;;;;;;;;;;10.74;89.59;99200.97;5019423;28;19925;-46
2022/12/22 09:31:10;;;;;;;;;;;;;;;10.70;92.69;99245.72;5000567;28;19959;-46
2022/12/22 09:33:36;;;;;;;;;;;;;;;10.68;100.00;99294.72;5016699;28;19921;-46
2022/12/22 09:36:21;;;;;;;;;;;;;;;10.76;100.00;99338.28;5018780;28;19963;-47
2022/12/22 09:38:46;;;;;;;;;;;;;;;10.52;100.00;99375.84;5015302;28;20151;-47
2022/12/22 09:41:17;;;;;;;;;;;;;;;10.17;100.00;99389.53;5018353;28;20603;-47
2022/12/22 09:43:42;;;;;;;;;;;;;;;9.93;100.00;99433.00;5016562;28;19944;-46
2022/12/22 09:46:26;;;;;;;;;;;;;;;9.79;100.00;99486.47;5018078;28;19917;-46
2022/12/22 09:48:52;;;;;;;;;;;;;;;9.99;100.00;99592.41;5017975;28;19980;-45
2022/12/22 09:51:17;;;;;;;;;;;;;;;9.98;100.00;99670.44;5019549;28;19948;-46
2022/12/22 09:53:44;;;;;;;;;;;;;;;9.91;100.00;99732.34;5017814;28;19972;-46
2022/12/22 09:56:13;;;;;;;;;;;;;;;10.04;100.00;99804.16;5017711;28;19925;-46
2022/12/22 09:58:38;;;;;;;;;;;;;;;10.09;100.00;99859.84;5018007;28;19936;-46
2022/12/22 10:01:04;;;;;;;;;;;;;;;10.13;100.00;99918.13;5018855;28;19921;-45
2022/12/22 10:03:29;;;;;;;;;;;;;;;10.12;100.00;99979.03;5019659;28;19925;-46
2022/12/22 10:05:57;;;;;;;;;;;;;;;10.08;100.00;100020.28;5019851;28;19924;-46
2022/12/22 10:08:30;;;;;;;;;;;;;;;10.01;100.00;100053.84;5017258;28;20051;-46
2022/12/22 10:10:56;;;;;;;;;;;;;;;10.20;100.00;100125.66;5019770;28;20378;-46
2022/12/22 10:13:21;;;;;;;;;;;;;;;10.04;100.00;100148.16;5020600;28;19924;-46
2022/12/22 10:15:46;;;;;;;;;;;;;;;10.37;100.00;100224.16;5020272;28;19917;-47
2022/12/22 10:18:16;;;;;;;;;;;;;;;10.57;100.00;100274.63;5019174;28;19928;-46
2022/12/22 10:20:42;;;;;;;;;;;;;;;11.55;100.00;100386.81;5019394;28;19917;-46
2022/12/22 10:23:17;;;;;;;;;;;;;;;12.31;100.00;100433.88;5017474;28;19921;-46
2022/12/22 10:25:59;;;;;;;;;;;;;;;12.53;100.00;100351.69;5018211;28;20394;-45
2022/12/22 10:28:25;;;;;;;;;;;;;;;12.43;100.00;100186.53;5017953;28;19928;-45
2022/12/22 10:31:08;;;;;;;;;;;;;;;12.41;100.00;100061.72;5018308;28;19974;-45
2022/12/22 10:33:33;;;;;;;;;;;;;;;12.64;91.15;99957.84;5019150;28;19963;-46
2022/12/22 10:35:58;;;;;;;;;;;;;;;12.83;82.47;99886.66;5019328;28;19960;-46
2022/12/22 10:38:25;;;;;;;;;;;;;;;12.05;80.57;99752.66;5015562;28;19932;-46
2022/12/22 10:40:52;;;;;;;;;;;;;;;12.33;77.30;99736.44;5019231;28;20015;-46
2022/12/22 10:43:37;;;;;;;;;;;;;;;12.49;73.18;99700.69;5016321;28;19944;-45
2022/12/22 10:46:03;;;;;;;;;;;;;;;12.36;71.32;99638.19;5018793;28;19921;-46
2022/12/22 10:48:30;;;;;;;;;;;;;;;13.07;63.18;99651.56;5016128;28;19979;-46
2022/12/22 10:50:55;;;;;;;;;;;;;;;12.95;58.13;99555.41;5016978;28;19917;-46
2022/12/22 10:53:21;;;;;;;;;;;;;;;12.91;53.78;99502.13;5033458;28;19921;-46
2022/12/22 10:55:47;;;;;;;;;;;;;;;12.87;51.22;99453.16;5019417;28;19976;-46
2022/12/22 10:58:16;;;;;;;;;;;;;;;12.70;49.27;99399.44;5018445;28;19971;-45
2022/12/22 11:00:43;;;;;;;;;;;;;;;12.39;47.71;99358.34;5019755;28;19951;-46
2022/12/22 11:03:10;;;;;;;;;;;;;;;12.53;47.90;99359.53;5019137;28;19917;-46
2022/12/22 11:05:35;;;;;;;;;;;;;;;12.12;49.01;99335.94;5017679;28;20795;-45
2022/12/22 11:08:06;;;;;;;;;;;;;;;12.37;49.64;99386.78;5018062;28;20024;-45
2022/12/22 11:10:31;;;;;;;;;;;;;;;12.38;48.95;99401.38;5016927;28;19921;-46
2022/12/22 11:13:19;;;;;;;;;;;;;;;12.28;48.53;99408.59;5018475;28;19917;-46
2022/12/22 11:15:53;;;;;;;;;;;;;;;11.88;52.44;99393.50;4990335;28;19932;-45
2022/12/22 11:18:33;;;;;;;;;;;;;;;11.78;54.02;99413.56;5016663;28;19948;-46
2022/12/22 11:21:03;;;;;;;;;;;;;;;11.55;55.77;99422.00;5019130;28;21060;-46
2022/12/22 11:23:34;;;;;;;;;;;;;;;11.61;58.53;99455.34;5017372;28;19979;-46
2022/12/22 11:26:08;;;;;;;;;;;;;;;11.45;61.03;99485.91;5017912;28;19990;-45
2022/12/22 11:28:49;;;;;;;;;;;;;;;11.55;63.23;99539.81;5018911;28;19934;-46
2022/12/22 11:31:23;;;;;;;;;;;;;;;11.08;68.28;99551.34;5018687;28;19921;-46
2022/12/22 11:34:17;;;;;;;;;;;;;;;11.13;74.29;99604.47;5017558;28;19933;-45
2022/12/22 11:36:43;;;;;;;;;;;;;;;11.02;82.04;99640.84;4957540;28;19914;-46
2022/12/22 11:39:12;;;;;;;;;;;;;;;10.59;86.68;99641.81;5015482;28;19971;-46
2022/12/22 11:41:44;;;;;;;;;;;;;;;10.77;94.43;99700.66;5016850;28;19921;-46
2022/12/22 11:44:17;;;;;;;;;;;;;;;10.94;97.53;99744.09;5016359;28;19925;-46
2022/12/22 11:46:53;;;;;;;;;;;;;;;11.49;96.09;99798.72;5017056;28;19921;-46
2022/12/22 11:49:37;;;;;;;;;;;;;;;11.07;94.27;99762.72;5016033;28;19929;-46
2022/12/22 11:52:08;;;;;;;;;;;;;;;11.25;93.52;99775.19;5018049;28;19956;-46
2022/12/22 11:54:34;;;;;;;;;;;;;;;11.35;93.33;99769.84;5017590;28;20443;-46
2022/12/22 11:57:09;;;;;;;;;;;;;;;10.64;97.21;99730.97;5019138;28;19917;-46
2022/12/22 11:59:41;;;;;;;;;;;;;;;10.91;100.00;99789.72;5017009;28;19941;-45
2022/12/22 12:02:12;;;;;;;;;;;;;;;10.79;100.00;99801.97;5021303;28;19921;-46
2022/12/22 12:04:55;;;;;;;;;;;;;;;10.72;99.96;99821.00;5021490;28;20444;-46
2022/12/22 12:07:21;;;;;;;;;;;;;;;10.64;100.00;99812.56;5022722;28;19913;-45
2022/12/22 12:10:05;;;;;;;;;;;;;;;10.88;100.00;99843.00;5021738;28;19971;-45
2022/12/22 12:12:39;;;;;;;;;;;;;;;11.17;100.00;99867.31;5021912;28;19967;-45
2022/12/22 12:15:08;;;;;;;;;;;;;;;10.81;100.00;99828.53;5020763;28;19923;-46
2022/12/22 12:17:41;;;;;;;;;;;;;;;10.74;100.00;99834.69;5022034;28;20366;-46
2022/12/22 12:20:27;;;;;;;;;;;;;;;10.59;100.00;99829.84;5020168;28;19925;-46
2022/12/22 12:22:56;;;;;;;;;;;;;;;10.86;98.43;99849.91;5020686;28;19967;-46
2022/12/22 12:25:21;;;;;;;;;;;;;;;11.14;96.27;99854.50;5021960;28;20027;-45
2022/12/22 12:27:52;;;;;;;;;;;;;;;11.41;88.98;99847.91;5022594;28;19933;-46
2022/12/22 12:30:18;;;;;;;;;;;;;;;11.10;84.69;99793.56;5021323;28;20385;-46
2022/12/22 12:32:57;;;;;;;;;;;;;;;11.33;79.16;99793.06;5020245;28;19921;-46
2022/12/22 12:35:40;;;;;;;;;;;;;;;11.45;74.05;99755.88;5036355;28;19928;-45
2022/12/22 12:38:13;;;;;;;;;;;;;;;12.00;65.98;99743.38;5018550;28;19925;-45
2022/12/22 12:40:53;;;;;;;;;;;;;;;12.26;56.97;99689.28;5020706;28;19976;-46
2022/12/22 12:43:18;;;;;;;;;;;;;;;12.20;46.63;99585.31;5018297;28;19929;-45
2022/12/22 12:45:44;;;;;;;;;;;;;;;11.41;48.01;99460.22;5010807;28;20555;-45
2022/12/22 12:48:29;;;;;;;;;;;;;;;11.33;46.77;99431.22;5010389;28;20324;-46
2022/12/22 12:50:55;;;;;;;;;;;;;;;11.25;48.37;99434.03;5018387;28;20672;-45
2022/12/22 12:53:26;;;;;;;;;;;;;;;12.01;44.25;99482.59;5019089;28;19921;-45
2022/12/22 12:55:52;;;;;;;;;;;;;;;11.95;38.87;99431.16;5019166;28;19931;-45
2022/12/22 12:58:38;;;;;;;;;;;;;;;11.59;40.52;99377.16;5018093;28;20770;-46
2022/12/22 13:01:32;;;;;;;;;;;;;;;11.61;38.34;99364.19;5020102;28;19917;-46
2022/12/22 13:03:58;;;;;;;;;;;;;;;10.95;39.33;99307.72;5004145;28;19970;-45
2022/12/22 13:06:42;;;;;;;;;;;;;;;11.53;36.35;99330.91;5017270;28;20036;-45
2022/12/22 13:09:07;;;;;;;;;;;;;;;11.54;36.38;99285.31;5019875;28;19929;-46
2022/12/22 13:11:33;;;;;;;;;;;;;;;11.48;37.61;99232.22;5020377;28;19917;-45
2022/12/22 13:13:59;;;;;;;;;;;;;;;12.13;38.72;99218.88;5020142;28;19925;-45
2022/12/22 13:16:25;;;;;;;;;;;;;;;12.04;40.23;99170.16;5020592;28;20455;-46
2022/12/22 13:18:51;;;;;;;;;;;;;;;11.45;44.11;99093.91;5018373;28;19921;-46
2022/12/22 13:21:24;;;;;;;;;;;;;;;11.60;44.35;99082.19;5020263;28;19928;-45
2022/12/22 13:23:55;;;;;;;;;;;;;;;12.18;45.21;99073.28;5019656;28;19928;-45
2022/12/22 13:26:21;;;;;;;;;;;;;;;11.55;50.36;99001.56;5020333;28;19921;-45
2022/12/22 13:28:48;;;;;;;;;;;;;;;11.93;49.60;99014.84;5016495;28;20016;-45
2022/12/22 13:31:29;;;;;;;;;;;;;;;12.33;49.63;99002.97;5019252;28;19970;-45
2022/12/22 13:34:02;;;;;;;;;;;;;;;12.04;54.68;98940.44;5019999;28;19932;-46
2022/12/22 13:36:27;;;;;;;;;;;;;;;12.04;58.46;98898.28;5002395;28;19921;-45
2022/12/22 13:39:03;;;;;;;;;;;;;;;12.43;59.59;98887.22;5016494;28;19921;-45
2022/12/22 13:41:28;;;;;;;;;;;;;;;13.10;62.60;98866.25;5019023;28;19921;-45
2022/12/22 13:43:55;;;;;;;;;;;;;;;12.59;69.76;98802.19;5018340;28;19923;-45
2022/12/22 13:46:21;;;;;;;;;;;;;;;11.97;76.42;98748.00;5020345;28;19928;-45
2022/12/22 13:48:49;;;;;;;;;;;;;;;11.71;80.53;98718.91;5017383;28;20462;-45
2022/12/22 13:51:19;;;;;;;;;;;;;;;12.27;78.75;98726.94;5018425;28;20000;-46
2022/12/22 13:53:45;;;;;;;;;;;;;;;12.42;82.27;98705.63;5018208;28;20494;-45
2022/12/22 13:56:17;;;;;;;;;;;;;;;13.01;85.68;98685.72;5017959;28;19932;-45
2022/12/22 13:58:44;;;;;;;;;;;;;;;12.59;94.50;98631.69;5016194;28;19925;-46
2022/12/22 14:01:09;;;;;;;;;;;;;;;12.87;96.54;98618.34;5018165;28;19926;-45
2022/12/22 14:03:37;;;;;;;;;;;;;;;12.90;100.00;98589.75;5019653;28;19921;-45
2022/12/22 14:06:17;;;;;;;;;;;;;;;13.08;100.00;98568.19;5018766;28;19943;-45
2022/12/22 14:08:42;;;;;;;;;;;;;;;12.98;100.00;98554.88;5019079;28;19925;-45
2022/12/22 14:11:08;;;;;;;;;;;;;;;12.45;100.00;98527.31;5019620;28;19929;-45
2022/12/22 14:13:34;;;;;;;;;;;;;;;12.66;100.00;98535.75;5019004;28;19921;-45
2022/12/22 14:16:00;;;;;;;;;;;;;;;12.00;100.00;98515.59;5019562;28;19972;-46
2022/12/22 14:18:25;;;;;;;;;;;;;;;12.48;100.00;98537.47;5033891;28;19920;-45
2022/12/22 14:20:51;;;;;;;;;;;;;;;12.84;100.00;98528.88;5019181;28;20650;-45
2022/12/22 14:23:17;;;;;;;;;;;;;;;12.27;100.00;98517.81;5017145;28;20509;-45
2022/12/22 14:25:43;;;;;;;;;;;;;;;12.35;100.00;98526.03;5019456;28;20457;-45
2022/12/22 14:28:27;;;;;;;;;;;;;;;12.51;100.00;98533.91;5017835;28;19987;-45
2022/12/22 14:30:53;;;;;;;;;;;;;;;13.06;100.00;98533.81;5016356;28;19917;-46
2022/12/22 14:33:31;;;;;;;;;;;;;;;13.01;100.00;98514.28;5016623;28;19931;-46
2022/12/22 14:36:03;;;;;;;;;;;;;;;13.03;100.00;98512.47;5018829;28;20000;-45
2022/12/22 14:38:28;;;;;;;;;;;;;;;12.39;100.00;98491.44;5017457;28;20365;-46
2022/12/22 14:40:54;;;;;;;;;;;;;;;12.65;100.00;98515.16;5018939;28;19921;-46
2022/12/22 14:43:19;;;;;;;;;;;;;;;12.22;100.00;98514.59;5016753;28;19925;-46
2022/12/22 14:45:48;;;;;;;;;;;;;;;12.44;100.00;98529.94;5018961;28;19917;-45
2022/12/22 14:48:21;;;;;;;;;;;;;;;12.14;100.00;98538.22;5017582;28;19932;-45
2022/12/22 14:50:47;;;;;;;;;;;;;;;12.51;100.00;98565.72;5017199;28;19920;-45
2022/12/22 14:53:12;;;;;;;;;;;;;;;11.73;100.00;98539.13;5018774;28;19971;-45
2022/12/22 14:55:38;;;;;;;;;;;;;;;12.14;100.00;98554.53;5017294;28;19921;-45
2022/12/22 14:58:05;;;;;;;;;;;;;;;12.26;100.00;98554.88;5017728;28;19917;-45
2022/12/22 15:00:51;;;;;;;;;;;;;;;12.20;100.00;98535.34;5015967;28;20002;-45
2022/12/22 15:03:36;;;;;;;;;;;;;;;12.28;100.00;98524.66;5010882;28;19921;-45
2022/12/22 15:06:19;;;;;;;;;;;;;;;12.21;100.00;98512.94;5018648;28;19997;-45
2022/12/22 15:08:45;;;;;;;;;;;;;;;12.63;100.00;98497.16;5017520;28;19938;-45
2022/12/22 15:11:10;;;;;;;;;;;;;;;12.60;100.00;98479.22;5018493;28;19929;-45
2022/12/22 15:13:36;;;;;;;;;;;;;;;12.66;100.00;98472.94;5017344;28;19924;-45
2022/12/22 15:16:01;;;;;;;;;;;;;;;13.02;100.00;98451.31;5018417;28;20014;-45
2022/12/22 15:18:26;;;;;;;;;;;;;;;12.93;100.00;98444.88;5015999;28;20404;-46
2022/12/22 15:20:52;;;;;;;;;;;;;;;12.48;100.00;98439.34;5017177;28;19947;-45
2022/12/22 15:23:17;;;;;;;;;;;;;;;12.59;100.00;98438.81;5017933;28;20063;-46
2022/12/22 15:25:43;;;;;;;;;;;;;;;12.67;100.00;98438.44;5018309;28;19921;-45
2022/12/22 15:28:08;;;;;;;;;;;;;;;12.19;100.00;98425.25;5018457;28;20444;-45
2022/12/22 15:30:33;;;;;;;;;;;;;;;12.00;100.00;98433.03;5017310;28;19944;-45
2022/12/22 15:32:59;;;;;;;;;;;;;;;12.17;100.00;98431.38;5016787;28;19925;-45
2022/12/22 15:35:28;;;;;;;;;;;;;;;12.37;100.00;98436.44;5015089;28;19914;-45
2022/12/22 15:37:53;;;;;;;;;;;;;;;12.47;100.00;98434.22;5022815;28;20007;-46
2022/12/22 15:40:19;;;;;;;;;;;;;;;12.61;100.00;98412.88;5019052;28;19931;-45
2022/12/22 15:42:45;;;;;;;;;;;;;;;12.42;100.00;98418.13;5020968;28;19917;-45
2022/12/22 15:45:10;;;;;;;;;;;;;;;12.32;100.00;98410.00;5023482;28;19932;-45
2022/12/22 15:47:35;;;;;;;;;;;;;;;12.31;100.00;98411.72;5023335;28;19925;-46
2022/12/22 15:50:01;;;;;;;;;;;;;;;12.30;100.00;98398.91;5021525;28;19978;-46
2022/12/22 15:52:26;;;;;;;;;;;;;;;12.29;100.00;98376.56;5021453;28;19975;-45
2022/12/22 15:54:51;;;;;;;;;;;;;;;12.59;100.00;98378.53;5023483;28;19920;-45
2022/12/22 15:57:16;;;;;;;;;;;;;;;12.62;100.00;98368.09;5023454;28;19923;-45
2022/12/22 15:59:41;;;;;;;;;;;;;;;12.26;100.00;98359.50;5022732;28;19921;-45
2022/12/22 16:02:11;;;;;;;;;;;;;;;12.11;100.00;98366.25;5022322;28;20000;-45
2022/12/22 16:04:36;;;;;;;;;;;;;;;12.01;100.00;98365.00;5023101;28;20382;-46
2022/12/22 16:07:01;;;;;;;;;;;;;;;12.00;100.00;98365.94;5022482;28;19927;-46
2022/12/22 16:09:27;;;;;;;;;;;;;;;12.14;100.00;98379.00;5019726;28;19928;-47
2022/12/22 16:11:53;;;;;;;;;;;;;;;11.87;100.00;98359.66;5021049;28;19921;-46
2022/12/22 16:14:18;;;;;;;;;;;;;;;12.00;100.00;98365.94;5020979;28;20338;-45
2022/12/22 16:16:43;;;;;;;;;;;;;;;11.99;100.00;98353.09;5018384;28;19971;-44
2022/12/22 16:19:12;;;;;;;;;;;;;;;11.62;100.00;98340.16;5018809;28;19925;-45
2022/12/22 16:21:37;;;;;;;;;;;;;;;11.95;100.00;98344.69;5022190;28;20341;-45
2022/12/22 16:24:03;;;;;;;;;;;;;;;12.19;100.00;98342.63;5022038;28;19917;-45
2022/12/22 16:26:28;;;;;;;;;;;;;;;11.79;100.00;98333.38;5022510;28;21276;-45